< < Back
Terminal Aerodrome Forecast


Current Version              Previous Versions:   1  2  3  4  5  6  7  8  9  

Terminal Aerodrome Forecast

837
FTUS42 KTAE 290533
TAFTLH
TAF
KTLH 290533Z 2906/3006 VRB03KT P6SM SCT250
     FM291500 10006KT P6SM FEW050=



Latest METAR

206
SAUS80 KWBC 290800
MTRTLH
METAR KTLH 290753Z AUTO 10005KT 10SM CLR 22/18 A3008 RMK AO2 SLP186
T02220178


USA.gov is the U.S. government's official web portal to all federal, state and local government web resources and services.